Silver Shadow — C6FN6 — position and weather

sailwx.info

Track history (hours):
 
Tides and Currents Weather Stations Pressure Air Temp Water Temp Dewpoint Dewpoint Depression Visibility Wind Speed Wind Dir Waves Ship Positions

Silver Shadow

Operator: V Ships Leisure SAM

Last reported at 2018-May-18 19:00 UTC. Time now 2018-May-20 10:16 UTC.
Position N 55°30' E 173°18'.

Length 186 m; draft 6.1 m.

Type: Ship. MMSI: 308628000.

Wind from 090 at 33 knots

Barometer 1005.0 mb
Air temperature 4.0 ° C
Visibility: greater than 5.4 NM
Water temperature 3.2 ° C

Date/timePositionNaut miles runAvg speedWind from/ knotsBaromVisibWave heightAir tempDewpointWater temp
2018-May-18 19:00N 55°30' E 173°18'   090 / 331005.0 5.4 4.0 3.2
2018-May-13 11:31N 41°41' E 141°50'415.9
2018-May-13 11:14N 41°41' E 141°44'415.7
2018-May-13 11:00N 41°41' E 141°39'816.7
2018-May-13 10:30N 41°40' E 141°28'816.3
2018-May-13 10:00N 41°40' E 141°17'815.6
2018-May-13 09:30N 41°40' E 141°07'918.7
2018-May-13 09:00N 41°40' E 140°54'816.5
2018-May-13 08:30N 41°43' E 140°44'510.4
2018-May-13 08:00N 41°48' E 140°42'1 2.7
2018-May-13 07:29N 41°47' E 140°43'0 0.0
2018-May-13 06:59N 41°47' E 140°43'0 0.0
2018-May-13 06:29N 41°47' E 140°43'0 0.0
2018-May-13 05:59N 41°47' E 140°43'0 0.0
2018-May-13 05:29N 41°47' E 140°43'0 0.0
2018-May-13 04:59N 41°47' E 140°43'0 0.1
2018-May-13 04:29N 41°47' E 140°43'0 0.1
2018-May-13 03:59N 41°47' E 140°43'0 0.0
2018-May-13 03:29N 41°47' E 140°43'0 0.1
2018-May-13 02:56N 41°47' E 140°43'0 0.0
2018-May-13 02:29N 41°47' E 140°43'0 0.0
2018-May-13 01:59N 41°47' E 140°43'0 0.1
2018-May-13 01:29N 41°47' E 140°43'0 0.1
2018-May-13 00:59N 41°47' E 140°43'0 0.1
2018-May-13 00:29N 41°47' E 140°43'0 0.1
2018-May-12 23:59N 41°47' E 140°43'0 0.1
2018-May-12 23:29N 41°47' E 140°43'0 0.0
2018-May-12 22:59N 41°47' E 140°43'0 0.0
2018-May-12 22:30N 41°47' E 140°43'2 3.7
2018-May-12 22:00N 41°48' E 140°41'5 9.2
2018-May-12 21:31N 41°43' E 140°40'4 8.4
2018-May-12 21:01N 41°39' E 140°40'4 8.4
2018-May-12 20:31N 41°35' E 140°41'4 7.7
2018-May-12 20:00N 41°31' E 140°41'4 7.7
2018-May-12 19:30N 41°29' E 140°36'4 7.9
2018-May-12 19:00N 41°27' E 140°32'2 4.9
2018-May-12 18:31N 41°27' E 140°28'4 7.1
2018-May-12 18:01N 41°29' E 140°32'4 7.1
2018-May-12 17:31N 41°31' E 140°36'4 7.1
2018-May-12 17:00N 41°33' E 140°40'611.5
2018-May-12 16:31N 41°27' E 140°41'713.6
2018-May-12 16:00N 41°21' E 140°41'714.1
2018-May-12 15:30N 41°13' E 140°42'714.0
2018-May-12 15:00N 41°07' E 140°43'714.1
2018-May-12 14:29N 40°59' E 140°45'814.1
2018-May-12 13:57N 40°52' E 140°45'2 3.8
2018-May-12 13:29N 40°50' E 140°45'0 0.0
2018-May-12 12:56N 40°50' E 140°45'0 0.0
2018-May-12 12:29N 40°50' E 140°45'0 0.0
2018-May-12 11:59N 40°50' E 140°45'0 0.0
2018-May-12 11:29N 40°50' E 140°45'0 0.0
2018-May-12 10:56N 40°50' E 140°45'0 0.0
2018-May-12 10:29N 40°50' E 140°45'0 0.0
2018-May-12 09:59N 40°50' E 140°45'0 0.0
2018-May-12 09:29N 40°50' E 140°45'0 0.0
2018-May-12 08:59N 40°50' E 140°45'0 0.0
2018-May-12 08:29N 40°50' E 140°45'0 0.0
2018-May-12 07:56N 40°50' E 140°45'0 0.0
2018-May-12 07:29N 40°50' E 140°45'0 0.0
2018-May-12 04:08N 40°50' E 140°45'0 0.0
2018-May-12 01:14N 40°50' E 140°45'0 0.0
2018-May-12 00:59N 40°50' E 140°45'0 0.0
2018-May-12 00:29N 40°50' E 140°45'0 0.0
2018-May-11 23:56N 40°50' E 140°45'0 0.0
2018-May-11 23:29N 40°50' E 140°45'0 0.0
2018-May-11 22:56N 40°50' E 140°45'0 0.1
2018-May-11 22:30N 40°50' E 140°45'3 5.4
2018-May-11 21:59N 40°53' E 140°45'713.0
2018-May-11 21:29N 40°59' E 140°44'814.5
2018-May-11 20:54N 41°08' E 140°42'614.7
2018-May-11 20:30N 41°13' E 140°42'815.3
2018-May-11 20:00N 41°21' E 140°42'815.9
2018-May-11 19:30N 41°29' E 140°45'715.0
2018-May-11 19:00N 41°35' E 140°50'714.4
2018-May-11 18:30N 41°36' E 140°59'815.1
2018-May-11 18:00N 41°34' E 141°09'714.6
2018-May-11 17:30N 41°33' E 141°19'815.3
2018-May-11 17:00N 41°31' E 141°29'713.8
2018-May-11 16:28N 41°27' E 141°37'1915.3
2018-May-11 15:15N 41°09' E 141°42'415.5
2018-May-11 14:58N 41°04' E 141°44'36615.6
2018-May-10 15:28N 35°02' E 140°33'1416.0
2018-May-10 14:36N 34°56' E 140°18'216.7
2018-May-10 14:30N 34°56' E 140°16'816.4
2018-May-10 13:59N 34°53' E 140°06'1016.6
2018-May-10 13:21N 34°49' E 139°55'615.3
2018-May-10 12:57N 34°50' E 139°47'716.4
2018-May-10 12:30N 34°55' E 139°41'917.5
2018-May-10 12:00N 35°03' E 139°44'917.4
2018-May-10 11:31N 35°12' E 139°46'611.5
2018-May-10 11:00N 35°17' E 139°45'713.1
2018-May-10 10:30N 35°24' E 139°42'816.6
2018-May-10 10:01N 35°29' E 139°50'613.0
2018-May-10 09:31N 35°35' E 139°47'4 2.7
2018-May-10 08:04N 35°39' E 139°46'0 0.0
2018-May-10 07:01N 35°39' E 139°46'0 0.0
2018-May-10 06:55N 35°39' E 139°46'0 0.0
2018-May-10 06:01N 35°39' E 139°46'0 0.0
2018-May-10 05:55N 35°39' E 139°46'0 0.0
2018-May-10 05:13N 35°39' E 139°46'0 0.0
2018-May-10 04:10N 35°39' E 139°46'0 0.0
2018-May-10 03:55N 35°39' E 139°46'0 0.0
2018-May-10 03:13N 35°39' E 139°46'0 0.0
2018-May-10 02:52N 35°39' E 139°46'0 0.0
2018-May-10 02:13N 35°39' E 139°46'0 0.0
2018-May-10 00:49N 35°39' E 139°46'0 0.0
2018-May-10 00:22N 35°39' E 139°46'0 0.0
2018-May-09 23:01N 35°39' E 139°46'0 0.0
2018-May-09 22:52N 35°39' E 139°46'0 0.0
2018-May-09 22:28N 35°39' E 139°46'2 3.9
2018-May-09 22:00N 35°37' E 139°46'4 8.8
2018-May-09 21:30N 35°34' E 139°49'611.1
2018-May-09 21:01N 35°28' E 139°51'815.0
2018-May-09 20:30N 35°22' E 139°46'611.5
2018-May-09 20:00N 35°17' E 139°46'612.1
2018-May-09 19:30N 35°11' E 139°47'510.7
2018-May-09 19:00N 35°06' E 139°45'510.8
2018-May-09 18:30N 35°02' E 139°41'611.7
2018-May-09 18:00N 34°58' E 139°35'611.8
2018-May-09 17:30N 34°54' E 139°29'611.9
2018-May-09 17:00N 34°51' E 139°23'611.5
2018-May-09 16:27N 34°47' E 139°17'1011.7
2018-May-09 15:38N 34°40' E 139°10'211.9
2018-May-09 15:26N 34°38' E 139°08'511.7
2018-May-09 14:59N 34°34' E 139°04'611.7
2018-May-09 14:29N 34°29' E 138°59'1211.9
2018-May-09 13:28N 34°30' E 138°44'511.7
2018-May-09 13:00N 34°30' E 138°38'711.7
2018-May-09 12:27N 34°30' E 138°30'612.0
2018-May-09 11:55N 34°30' E 138°22'512.0
2018-May-09 11:28N 34°31' E 138°15'1511.8
2018-May-09 10:13N 34°33' E 137°58'311.8
2018-May-09 09:58N 34°34' E 137°54'711.7
2018-May-09 09:23N 34°34' E 137°46'1711.1
2018-May-09 07:51N 34°30' E 137°26'4011.9
2018-May-09 04:29N 34°05' E 136°48'611.9
2018-May-09 04:00N 34°01' E 136°42'611.9
2018-May-09 03:28N 33°57' E 136°37'  
Track history (hours):
 
Tides and Currents Weather Stations Pressure Air Temp Water Temp Dewpoint Dewpoint Depression Visibility Wind Speed Wind Dir Waves Ship Positions

Silver Shadow

Operator: V Ships Leisure SAM

Last reported at 2018-May-18 19:00 UTC. Time now 2018-May-20 10:16 UTC.
Position N 55°30' E 173°18'.

Length 186 m; draft 6.1 m.

Type: Ship. MMSI: 308628000.

Wind from 090 at 33 knots

Barometer 1005.0 mb
Air temperature 4.0 ° C
Visibility: greater than 5.4 NM
Water temperature 3.2 ° C

Date/timePositionNaut miles runAvg speedWind from/ knotsBaromVisibWave heightAir tempDewpointWater temp
2018-May-18 19:00N 55°30' E 173°18'   090 / 331005.0 5.4 4.0 3.2
2018-May-13 11:31N 41°41' E 141°50'415.9
2018-May-13 11:14N 41°41' E 141°44'415.7
2018-May-13 11:00N 41°41' E 141°39'816.7
2018-May-13 10:30N 41°40' E 141°28'816.3
2018-May-13 10:00N 41°40' E 141°17'815.6
2018-May-13 09:30N 41°40' E 141°07'918.7
2018-May-13 09:00N 41°40' E 140°54'816.5
2018-May-13 08:30N 41°43' E 140°44'510.4
2018-May-13 08:00N 41°48' E 140°42'1 2.7
2018-May-13 07:29N 41°47' E 140°43'0 0.0
2018-May-13 06:59N 41°47' E 140°43'0 0.0
2018-May-13 06:29N 41°47' E 140°43'0 0.0
2018-May-13 05:59N 41°47' E 140°43'0 0.0
2018-May-13 05:29N 41°47' E 140°43'0 0.0
2018-May-13 04:59N 41°47' E 140°43'0 0.1
2018-May-13 04:29N 41°47' E 140°43'0 0.1
2018-May-13 03:59N 41°47' E 140°43'0 0.0
2018-May-13 03:29N 41°47' E 140°43'0 0.1
2018-May-13 02:56N 41°47' E 140°43'0 0.0
2018-May-13 02:29N 41°47' E 140°43'0 0.0
2018-May-13 01:59N 41°47' E 140°43'0 0.1
2018-May-13 01:29N 41°47' E 140°43'0 0.1
2018-May-13 00:59N 41°47' E 140°43'0 0.1
2018-May-13 00:29N 41°47' E 140°43'0 0.1
2018-May-12 23:59N 41°47' E 140°43'0 0.1
2018-May-12 23:29N 41°47' E 140°43'0 0.0
2018-May-12 22:59N 41°47' E 140°43'0 0.0
2018-May-12 22:30N 41°47' E 140°43'2 3.7
2018-May-12 22:00N 41°48' E 140°41'5 9.2
2018-May-12 21:31N 41°43' E 140°40'4 8.4
2018-May-12 21:01N 41°39' E 140°40'4 8.4
2018-May-12 20:31N 41°35' E 140°41'4 7.7
2018-May-12 20:00N 41°31' E 140°41'4 7.7
2018-May-12 19:30N 41°29' E 140°36'4 7.9
2018-May-12 19:00N 41°27' E 140°32'2 4.9
2018-May-12 18:31N 41°27' E 140°28'4 7.1
2018-May-12 18:01N 41°29' E 140°32'4 7.1
2018-May-12 17:31N 41°31' E 140°36'4 7.1
2018-May-12 17:00N 41°33' E 140°40'611.5
2018-May-12 16:31N 41°27' E 140°41'713.6
2018-May-12 16:00N 41°21' E 140°41'714.1
2018-May-12 15:30N 41°13' E 140°42'714.0
2018-May-12 15:00N 41°07' E 140°43'714.1
2018-May-12 14:29N 40°59' E 140°45'814.1
2018-May-12 13:57N 40°52' E 140°45'2 3.8
2018-May-12 13:29N 40°50' E 140°45'0 0.0
2018-May-12 12:56N 40°50' E 140°45'0 0.0
2018-May-12 12:29N 40°50' E 140°45'0 0.0
2018-May-12 11:59N 40°50' E 140°45'0 0.0
2018-May-12 11:29N 40°50' E 140°45'0 0.0
2018-May-12 10:56N 40°50' E 140°45'0 0.0
2018-May-12 10:29N 40°50' E 140°45'0 0.0
2018-May-12 09:59N 40°50' E 140°45'0 0.0
2018-May-12 09:29N 40°50' E 140°45'0 0.0
2018-May-12 08:59N 40°50' E 140°45'0 0.0
2018-May-12 08:29N 40°50' E 140°45'0 0.0
2018-May-12 07:56N 40°50' E 140°45'0 0.0
2018-May-12 07:29N 40°50' E 140°45'0 0.0
2018-May-12 04:08N 40°50' E 140°45'0 0.0
2018-May-12 01:14N 40°50' E 140°45'0 0.0
2018-May-12 00:59N 40°50' E 140°45'0 0.0
2018-May-12 00:29N 40°50' E 140°45'0 0.0
2018-May-11 23:56N 40°50' E 140°45'0 0.0
2018-May-11 23:29N 40°50' E 140°45'0 0.0
2018-May-11 22:56N 40°50' E 140°45'0 0.1
2018-May-11 22:30N 40°50' E 140°45'3 5.4
2018-May-11 21:59N 40°53' E 140°45'713.0
2018-May-11 21:29N 40°59' E 140°44'814.5
2018-May-11 20:54N 41°08' E 140°42'614.7
2018-May-11 20:30N 41°13' E 140°42'815.3
2018-May-11 20:00N 41°21' E 140°42'815.9
2018-May-11 19:30N 41°29' E 140°45'715.0
2018-May-11 19:00N 41°35' E 140°50'714.4
2018-May-11 18:30N 41°36' E 140°59'815.1
2018-May-11 18:00N 41°34' E 141°09'714.6
2018-May-11 17:30N 41°33' E 141°19'815.3
2018-May-11 17:00N 41°31' E 141°29'713.8
2018-May-11 16:28N 41°27' E 141°37'1915.3
2018-May-11 15:15N 41°09' E 141°42'415.5
2018-May-11 14:58N 41°04' E 141°44'36615.6
2018-May-10 15:28N 35°02' E 140°33'1416.0
2018-May-10 14:36N 34°56' E 140°18'216.7
2018-May-10 14:30N 34°56' E 140°16'816.4
2018-May-10 13:59N 34°53' E 140°06'1016.6
2018-May-10 13:21N 34°49' E 139°55'615.3
2018-May-10 12:57N 34°50' E 139°47'716.4
2018-May-10 12:30N 34°55' E 139°41'917.5
2018-May-10 12:00N 35°03' E 139°44'917.4
2018-May-10 11:31N 35°12' E 139°46'611.5
2018-May-10 11:00N 35°17' E 139°45'713.1
2018-May-10 10:30N 35°24' E 139°42'816.6
2018-May-10 10:01N 35°29' E 139°50'613.0
2018-May-10 09:31N 35°35' E 139°47'4 2.7
2018-May-10 08:04N 35°39' E 139°46'0 0.0
2018-May-10 07:01N 35°39' E 139°46'0 0.0
2018-May-10 06:55N 35°39' E 139°46'0 0.0
2018-May-10 06:01N 35°39' E 139°46'0 0.0
2018-May-10 05:55N 35°39' E 139°46'0 0.0
2018-May-10 05:13N 35°39' E 139°46'0 0.0
2018-May-10 04:10N 35°39' E 139°46'0 0.0
2018-May-10 03:55N 35°39' E 139°46'0 0.0
2018-May-10 03:13N 35°39' E 139°46'0 0.0
2018-May-10 02:52N 35°39' E 139°46'0 0.0
2018-May-10 02:13N 35°39' E 139°46'0 0.0
2018-May-10 00:49N 35°39' E 139°46'0 0.0
2018-May-10 00:22N 35°39' E 139°46'0 0.0
2018-May-09 23:01N 35°39' E 139°46'0 0.0
2018-May-09 22:52N 35°39' E 139°46'0 0.0
2018-May-09 22:28N 35°39' E 139°46'2 3.9
2018-May-09 22:00N 35°37' E 139°46'4 8.8
2018-May-09 21:30N 35°34' E 139°49'611.1
2018-May-09 21:01N 35°28' E 139°51'815.0
2018-May-09 20:30N 35°22' E 139°46'611.5
2018-May-09 20:00N 35°17' E 139°46'612.1
2018-May-09 19:30N 35°11' E 139°47'510.7
2018-May-09 19:00N 35°06' E 139°45'510.8
2018-May-09 18:30N 35°02' E 139°41'611.7
2018-May-09 18:00N 34°58' E 139°35'611.8
2018-May-09 17:30N 34°54' E 139°29'611.9
2018-May-09 17:00N 34°51' E 139°23'611.5
2018-May-09 16:27N 34°47' E 139°17'1011.7
2018-May-09 15:38N 34°40' E 139°10'211.9
2018-May-09 15:26N 34°38' E 139°08'511.7
2018-May-09 14:59N 34°34' E 139°04'611.7
2018-May-09 14:29N 34°29' E 138°59'1211.9
2018-May-09 13:28N 34°30' E 138°44'511.7
2018-May-09 13:00N 34°30' E 138°38'711.7
2018-May-09 12:27N 34°30' E 138°30'612.0
2018-May-09 11:55N 34°30' E 138°22'512.0
2018-May-09 11:28N 34°31' E 138°15'1511.8
2018-May-09 10:13N 34°33' E 137°58'311.8
2018-May-09 09:58N 34°34' E 137°54'711.7
2018-May-09 09:23N 34°34' E 137°46'1711.1
2018-May-09 07:51N 34°30' E 137°26'4011.9
2018-May-09 04:29N 34°05' E 136°48'611.9
2018-May-09 04:00N 34°01' E 136°42'611.9
2018-May-09 03:28N 33°57' E 136°37'  

Dump ship's entire track history